Terminal Aerodrome Forecast
Issued by NWS

Home | Current Version | Previous Version | Text Only | Print | Product List | Glossary On
Versions: 1 2 3 4 5 6 7 8 9 10 11 12 13
056
FTUS44 KEPZ 230524
TAFDMN
TAF
KDMN 230524Z 2306/2406 08008KT P6SM FEW070 BKN120 OVC220
     FM231200 12007KT P6SM SCT040 BKN070 BKN120
     FM231900 12010KT P6SM VCTS SCT040CB BKN100
     FM240500 05005KT P6SM VCSH SCT050 BKN100 OVC150=

USA.gov is the U.S. government's official web portal to all federal, state and local government web resources and services.